sensor_id;sensor_type;location;lat;lon;timestamp;temperature;humidity
64062;DHT22;50308;47.438;-1.528;2022-08-03T00:01:27;26.60;51.90
64062;DHT22;50308;47.438;-1.528;2022-08-03T00:03:52;26.60;51.90
64062;DHT22;50308;47.438;-1.528;2022-08-03T00:06:18;26.60;51.80
64062;DHT22;50308;47.438;-1.528;2022-08-03T00:08:44;26.60;51.80
64062;DHT22;50308;47.438;-1.528;2022-08-03T00:11:09;26.60;51.80
64062;DHT22;50308;47.438;-1.528;2022-08-03T00:13:35;26.60;51.80
64062;DHT22;50308;47.438;-1.528;2022-08-03T00:16:01;26.60;51.80
64062;DHT22;50308;47.438;-1.528;2022-08-03T00:18:27;26.50;51.80
64062;DHT22;50308;47.438;-1.528;2022-08-03T00:20:52;26.50;51.70
64062;DHT22;50308;47.438;-1.528;2022-08-03T00:23:18;26.50;51.70
64062;DHT22;50308;47.438;-1.528;2022-08-03T00:25:44;26.50;51.60
64062;DHT22;50308;47.438;-1.528;2022-08-03T00:28:10;26.50;51.70
64062;DHT22;50308;47.438;-1.528;2022-08-03T00:30:36;26.50;51.70
64062;DHT22;50308;47.438;-1.528;2022-08-03T00:33:02;26.50;51.60
64062;DHT22;50308;47.438;-1.528;2022-08-03T00:35:28;26.50;51.70
64062;DHT22;50308;47.438;-1.528;2022-08-03T00:37:54;26.50;51.70
64062;DHT22;50308;47.438;-1.528;2022-08-03T00:40:20;26.50;51.70
64062;DHT22;50308;47.438;-1.528;2022-08-03T00:42:51;26.50;51.80
64062;DHT22;50308;47.438;-1.528;2022-08-03T00:45:22;26.50;51.70
64062;DHT22;50308;47.438;-1.528;2022-08-03T00:47:48;26.50;51.80
64062;DHT22;50308;47.438;-1.528;2022-08-03T00:50:15;26.50;51.80
64062;DHT22;50308;47.438;-1.528;2022-08-03T00:52:41;26.50;51.80
64062;DHT22;50308;47.438;-1.528;2022-08-03T00:55:07;26.40;51.80
64062;DHT22;50308;47.438;-1.528;2022-08-03T00:57:32;26.40;51.80
64062;DHT22;50308;47.438;-1.528;2022-08-03T00:59:58;26.40;51.80
64062;DHT22;50308;47.438;-1.528;2022-08-03T01:02:26;26.40;51.90
64062;DHT22;50308;47.438;-1.528;2022-08-03T01:04:52;26.40;52.00
64062;DHT22;50308;47.438;-1.528;2022-08-03T01:13:37;26.40;52.10
64062;DHT22;50308;47.438;-1.528;2022-08-03T01:16:07;26.30;52.00
64062;DHT22;50308;47.438;-1.528;2022-08-03T01:30:09;26.30;52.20
64062;DHT22;50308;47.438;-1.528;2022-08-03T01:32:51;26.30;52.20
64062;DHT22;50308;47.438;-1.528;2022-08-03T01:35:25;26.30;52.20
64062;DHT22;50308;47.438;-1.528;2022-08-03T01:37:57;26.30;52.20
64062;DHT22;50308;47.438;-1.528;2022-08-03T01:40:27;26.30;52.30
64062;DHT22;50308;47.438;-1.528;2022-08-03T01:42:55;26.30;52.40
64062;DHT22;50308;47.438;-1.528;2022-08-03T01:45:23;26.20;52.30
64062;DHT22;50308;47.438;-1.528;2022-08-03T01:47:50;26.20;52.30
64062;DHT22;50308;47.438;-1.528;2022-08-03T01:50:21;26.20;52.40
64062;DHT22;50308;47.438;-1.528;2022-08-03T01:52:48;26.20;52.50
64062;DHT22;50308;47.438;-1.528;2022-08-03T01:55:17;26.20;52.40
64062;DHT22;50308;47.438;-1.528;2022-08-03T01:57:44;26.20;52.50
64062;DHT22;50308;47.438;-1.528;2022-08-03T02:00:10;26.20;52.50
64062;DHT22;50308;47.438;-1.528;2022-08-03T02:02:37;26.20;52.50
64062;DHT22;50308;47.438;-1.528;2022-08-03T02:05:06;26.10;52.50
64062;DHT22;50308;47.438;-1.528;2022-08-03T02:07:33;26.20;52.60
64062;DHT22;50308;47.438;-1.528;2022-08-03T02:10:03;26.10;52.60
64062;DHT22;50308;47.438;-1.528;2022-08-03T02:12:31;26.10;52.60
64062;DHT22;50308;47.438;-1.528;2022-08-03T02:14:58;26.10;52.60
64062;DHT22;50308;47.438;-1.528;2022-08-03T02:17:25;26.10;52.70
64062;DHT22;50308;47.438;-1.528;2022-08-03T02:19:53;26.10;52.70
64062;DHT22;50308;47.438;-1.528;2022-08-03T02:22:21;26.00;52.70
64062;DHT22;50308;47.438;-1.528;2022-08-03T02:24:49;26.00;52.70
64062;DHT22;50308;47.438;-1.528;2022-08-03T02:27:26;26.00;52.80
64062;DHT22;50308;47.438;-1.528;2022-08-03T02:30:07;26.00;52.70
64062;DHT22;50308;47.438;-1.528;2022-08-03T02:32:38;26.00;52.80
64062;DHT22;50308;47.438;-1.528;2022-08-03T02:35:08;26.00;52.80
64062;DHT22;50308;47.438;-1.528;2022-08-03T02:37:40;26.00;52.90
64062;DHT22;50308;47.438;-1.528;2022-08-03T02:40:07;26.00;52.90
64062;DHT22;50308;47.438;-1.528;2022-08-03T02:42:35;26.00;52.90
64062;DHT22;50308;47.438;-1.528;2022-08-03T02:45:04;26.00;53.00
64062;DHT22;50308;47.438;-1.528;2022-08-03T02:47:31;25.90;52.90
64062;DHT22;50308;47.438;-1.528;2022-08-03T02:50:00;25.90;52.90
64062;DHT22;50308;47.438;-1.528;2022-08-03T02:52:28;25.90;52.90
64062;DHT22;50308;47.438;-1.528;2022-08-03T02:54:58;25.90;52.90
64062;DHT22;50308;47.438;-1.528;2022-08-03T02:57:26;25.90;53.00
64062;DHT22;50308;47.438;-1.528;2022-08-03T02:59:53;25.90;53.00
64062;DHT22;50308;47.438;-1.528;2022-08-03T03:02:20;25.90;53.10
64062;DHT22;50308;47.438;-1.528;2022-08-03T03:04:48;25.90;53.00
64062;DHT22;50308;47.438;-1.528;2022-08-03T03:07:14;25.90;53.00
64062;DHT22;50308;47.438;-1.528;2022-08-03T03:09:42;25.90;53.00
64062;DHT22;50308;47.438;-1.528;2022-08-03T03:12:09;25.80;53.00
64062;DHT22;50308;47.438;-1.528;2022-08-03T03:14:36;25.80;53.00
64062;DHT22;50308;47.438;-1.528;2022-08-03T03:17:02;25.90;53.10
64062;DHT22;50308;47.438;-1.528;2022-08-03T03:19:30;25.80;53.00
64062;DHT22;50308;47.438;-1.528;2022-08-03T03:22:01;25.90;53.20
64062;DHT22;50308;47.438;-1.528;2022-08-03T03:24:28;25.80;53.10
64062;DHT22;50308;47.438;-1.528;2022-08-03T03:26:55;25.80;53.20
64062;DHT22;50308;47.438;-1.528;2022-08-03T03:29:21;25.80;53.10
64062;DHT22;50308;47.438;-1.528;2022-08-03T03:31:47;25.80;53.20
64062;DHT22;50308;47.438;-1.528;2022-08-03T03:34:14;25.80;53.20
64062;DHT22;50308;47.438;-1.528;2022-08-03T03:36:40;25.80;53.20
64062;DHT22;50308;47.438;-1.528;2022-08-03T03:39:06;25.80;53.30
64062;DHT22;50308;47.438;-1.528;2022-08-03T03:41:32;25.80;53.30
64062;DHT22;50308;47.438;-1.528;2022-08-03T03:43:58;25.80;53.30
64062;DHT22;50308;47.438;-1.528;2022-08-03T03:46:24;25.80;53.40
64062;DHT22;50308;47.438;-1.528;2022-08-03T03:48:50;25.80;53.40
64062;DHT22;50308;47.438;-1.528;2022-08-03T03:51:16;25.80;53.50
64062;DHT22;50308;47.438;-1.528;2022-08-03T03:53:59;25.80;53.50
64062;DHT22;50308;47.438;-1.528;2022-08-03T03:56:26;25.80;53.50
64062;DHT22;50308;47.438;-1.528;2022-08-03T03:58:52;25.70;53.50
64062;DHT22;50308;47.438;-1.528;2022-08-03T04:01:18;25.80;53.60
64062;DHT22;50308;47.438;-1.528;2022-08-03T04:03:44;25.70;53.50
64062;DHT22;50308;47.438;-1.528;2022-08-03T04:06:10;25.70;53.50
64062;DHT22;50308;47.438;-1.528;2022-08-03T04:08:55;25.70;53.60
64062;DHT22;50308;47.438;-1.528;2022-08-03T04:11:46;25.70;53.60
64062;DHT22;50308;47.438;-1.528;2022-08-03T04:14:26;25.70;53.60
64062;DHT22;50308;47.438;-1.528;2022-08-03T04:16:56;25.70;53.70
64062;DHT22;50308;47.438;-1.528;2022-08-03T04:19:29;25.70;53.70
64062;DHT22;50308;47.438;-1.528;2022-08-03T04:22:01;25.70;53.70
64062;DHT22;50308;47.438;-1.528;2022-08-03T04:24:42;25.70;53.70
64062;DHT22;50308;47.438;-1.528;2022-08-03T04:27:10;25.70;53.70
64062;DHT22;50308;47.438;-1.528;2022-08-03T04:29:40;25.70;53.70
64062;DHT22;50308;47.438;-1.528;2022-08-03T04:32:07;25.60;53.60
64062;DHT22;50308;47.438;-1.528;2022-08-03T04:34:33;25.60;53.70
64062;DHT22;50308;47.438;-1.528;2022-08-03T04:37:02;25.60;53.70
64062;DHT22;50308;47.438;-1.528;2022-08-03T04:39:31;25.60;53.70
64062;DHT22;50308;47.438;-1.528;2022-08-03T04:42:00;25.60;53.70
64062;DHT22;50308;47.438;-1.528;2022-08-03T04:44:27;25.60;53.70
64062;DHT22;50308;47.438;-1.528;2022-08-03T04:46:53;25.60;53.70
64062;DHT22;50308;47.438;-1.528;2022-08-03T04:49:20;25.50;53.70
64062;DHT22;50308;47.438;-1.528;2022-08-03T04:51:48;25.50;53.80
64062;DHT22;50308;47.438;-1.528;2022-08-03T04:54:15;25.50;53.80
64062;DHT22;50308;47.438;-1.528;2022-08-03T04:56:41;25.50;53.80
64062;DHT22;50308;47.438;-1.528;2022-08-03T04:59:08;25.50;53.80
64062;DHT22;50308;47.438;-1.528;2022-08-03T05:01:34;25.50;53.70
64062;DHT22;50308;47.438;-1.528;2022-08-03T05:04:00;25.50;53.70
64062;DHT22;50308;47.438;-1.528;2022-08-03T05:06:26;25.50;53.70
64062;DHT22;50308;47.438;-1.528;2022-08-03T05:08:53;25.50;53.80
64062;DHT22;50308;47.438;-1.528;2022-08-03T05:11:19;25.50;54.80
64062;DHT22;50308;47.438;-1.528;2022-08-03T05:13:45;25.50;53.80
64062;DHT22;50308;47.438;-1.528;2022-08-03T05:16:12;25.50;53.80
64062;DHT22;50308;47.438;-1.528;2022-08-03T05:18:39;25.50;53.70
64062;DHT22;50308;47.438;-1.528;2022-08-03T05:21:05;25.50;53.80
64062;DHT22;50308;47.438;-1.528;2022-08-03T05:23:30;25.50;53.80
64062;DHT22;50308;47.438;-1.528;2022-08-03T05:25:56;25.50;53.80
64062;DHT22;50308;47.438;-1.528;2022-08-03T05:28:22;25.40;53.80
64062;DHT22;50308;47.438;-1.528;2022-08-03T05:30:48;25.50;53.80
64062;DHT22;50308;47.438;-1.528;2022-08-03T05:33:13;25.50;53.90
64062;DHT22;50308;47.438;-1.528;2022-08-03T05:35:39;25.50;53.90
64062;DHT22;50308;47.438;-1.528;2022-08-03T05:38:05;25.40;53.80
64062;DHT22;50308;47.438;-1.528;2022-08-03T05:40:31;25.50;53.90
64062;DHT22;50308;47.438;-1.528;2022-08-03T05:42:57;25.50;53.90
64062;DHT22;50308;47.438;-1.528;2022-08-03T05:45:23;25.50;53.90
64062;DHT22;50308;47.438;-1.528;2022-08-03T05:47:49;25.50;54.00
64062;DHT22;50308;47.438;-1.528;2022-08-03T05:50:16;25.50;54.00
64062;DHT22;50308;47.438;-1.528;2022-08-03T05:52:42;25.50;54.00
64062;DHT22;50308;47.438;-1.528;2022-08-03T05:55:09;25.50;54.10
64062;DHT22;50308;47.438;-1.528;2022-08-03T05:57:35;25.50;54.10
64062;DHT22;50308;47.438;-1.528;2022-08-03T06:00:04;25.50;54.20
64062;DHT22;50308;47.438;-1.528;2022-08-03T06:02:30;25.50;54.20
64062;DHT22;50308;47.438;-1.528;2022-08-03T06:04:56;25.50;54.20
64062;DHT22;50308;47.438;-1.528;2022-08-03T06:07:21;25.50;54.40
64062;DHT22;50308;47.438;-1.528;2022-08-03T06:09:47;25.50;54.40
64062;DHT22;50308;47.438;-1.528;2022-08-03T06:12:13;25.50;54.50
64062;DHT22;50308;47.438;-1.528;2022-08-03T06:14:38;25.50;54.50
64062;DHT22;50308;47.438;-1.528;2022-08-03T06:17:04;25.50;54.60
64062;DHT22;50308;47.438;-1.528;2022-08-03T06:19:29;25.60;54.70
64062;DHT22;50308;47.438;-1.528;2022-08-03T06:21:55;25.60;54.90
64062;DHT22;50308;47.438;-1.528;2022-08-03T06:24:21;25.60;56.10
64062;DHT22;50308;47.438;-1.528;2022-08-03T06:26:46;25.60;55.00
64062;DHT22;50308;47.438;-1.528;2022-08-03T06:29:12;25.60;55.00
64062;DHT22;50308;47.438;-1.528;2022-08-03T06:31:38;25.60;55.10
64062;DHT22;50308;47.438;-1.528;2022-08-03T06:34:04;25.60;55.20
64062;DHT22;50308;47.438;-1.528;2022-08-03T06:36:30;25.60;55.30
64062;DHT22;50308;47.438;-1.528;2022-08-03T06:38:57;25.60;55.50
64062;DHT22;50308;47.438;-1.528;2022-08-03T06:41:24;25.60;55.50
64062;DHT22;50308;47.438;-1.528;2022-08-03T06:43:50;25.60;55.50
64062;DHT22;50308;47.438;-1.528;2022-08-03T06:46:15;25.70;55.60
64062;DHT22;50308;47.438;-1.528;2022-08-03T06:48:41;25.70;55.80
64062;DHT22;50308;47.438;-1.528;2022-08-03T06:51:07;25.60;56.10
64062;DHT22;50308;47.438;-1.528;2022-08-03T06:53:33;25.70;55.80
64062;DHT22;50308;47.438;-1.528;2022-08-03T06:55:59;25.70;55.90
64062;DHT22;50308;47.438;-1.528;2022-08-03T06:58:25;25.70;55.90
64062;DHT22;50308;47.438;-1.528;2022-08-03T07:00:50;25.70;55.90
64062;DHT22;50308;47.438;-1.528;2022-08-03T07:03:16;25.70;55.90
64062;DHT22;50308;47.438;-1.528;2022-08-03T07:05:42;25.70;55.90
64062;DHT22;50308;47.438;-1.528;2022-08-03T07:08:11;25.70;56.10
64062;DHT22;50308;47.438;-1.528;2022-08-03T07:10:36;25.70;56.10
64062;DHT22;50308;47.438;-1.528;2022-08-03T07:13:03;25.80;56.20
64062;DHT22;50308;47.438;-1.528;2022-08-03T07:15:28;25.80;56.20
64062;DHT22;50308;47.438;-1.528;2022-08-03T07:17:55;25.80;56.10
64062;DHT22;50308;47.438;-1.528;2022-08-03T07:20:21;25.80;56.10
64062;DHT22;50308;47.438;-1.528;2022-08-03T07:22:46;25.80;55.90
64062;DHT22;50308;47.438;-1.528;2022-08-03T07:25:12;25.80;55.90
64062;DHT22;50308;47.438;-1.528;2022-08-03T07:27:39;25.80;55.90
64062;DHT22;50308;47.438;-1.528;2022-08-03T07:30:07;25.80;55.80
64062;DHT22;50308;47.438;-1.528;2022-08-03T07:32:34;25.90;55.80
64062;DHT22;50308;47.438;-1.528;2022-08-03T07:34:59;25.90;55.60
64062;DHT22;50308;47.438;-1.528;2022-08-03T07:37:25;25.90;55.40
64062;DHT22;50308;47.438;-1.528;2022-08-03T07:39:51;25.90;55.30
64062;DHT22;50308;47.438;-1.528;2022-08-03T07:42:16;25.90;55.20
64062;DHT22;50308;47.438;-1.528;2022-08-03T07:44:42;26.00;55.30
64062;DHT22;50308;47.438;-1.528;2022-08-03T07:47:08;26.00;55.30
64062;DHT22;50308;47.438;-1.528;2022-08-03T07:49:38;26.00;55.10
64062;DHT22;50308;47.438;-1.528;2022-08-03T07:52:04;26.00;55.10
64062;DHT22;50308;47.438;-1.528;2022-08-03T07:54:48;26.00;55.00
64062;DHT22;50308;47.438;-1.528;2022-08-03T07:57:14;26.10;54.90
64062;DHT22;50308;47.438;-1.528;2022-08-03T07:59:42;26.10;54.90
64062;DHT22;50308;47.438;-1.528;2022-08-03T08:02:09;26.10;54.80
64062;DHT22;50308;47.438;-1.528;2022-08-03T08:04:35;26.10;54.70
64062;DHT22;50308;47.438;-1.528;2022-08-03T08:07:01;26.10;54.70
64062;DHT22;50308;47.438;-1.528;2022-08-03T08:09:26;26.10;54.70
64062;DHT22;50308;47.438;-1.528;2022-08-03T08:11:55;26.10;54.60
64062;DHT22;50308;47.438;-1.528;2022-08-03T08:14:20;26.10;54.60
64062;DHT22;50308;47.438;-1.528;2022-08-03T08:16:46;26.10;54.40
64062;DHT22;50308;47.438;-1.528;2022-08-03T08:19:14;26.20;54.40
64062;DHT22;50308;47.438;-1.528;2022-08-03T08:21:42;26.20;54.40
64062;DHT22;50308;47.438;-1.528;2022-08-03T08:24:08;26.20;54.20
64062;DHT22;50308;47.438;-1.528;2022-08-03T08:26:34;26.20;54.20
64062;DHT22;50308;47.438;-1.528;2022-08-03T08:28:59;26.20;54.10
64062;DHT22;50308;47.438;-1.528;2022-08-03T08:31:25;26.20;54.00
64062;DHT22;50308;47.438;-1.528;2022-08-03T08:33:51;26.20;54.10
64062;DHT22;50308;47.438;-1.528;2022-08-03T08:36:16;26.30;54.10
64062;DHT22;50308;47.438;-1.528;2022-08-03T08:38:43;26.20;54.00
64062;DHT22;50308;47.438;-1.528;2022-08-03T08:41:10;26.20;53.90
64062;DHT22;50308;47.438;-1.528;2022-08-03T08:43:37;26.30;53.90
64062;DHT22;50308;47.438;-1.528;2022-08-03T08:46:02;26.30;53.90
64062;DHT22;50308;47.438;-1.528;2022-08-03T08:48:30;26.30;53.80
64062;DHT22;50308;47.438;-1.528;2022-08-03T08:50:56;26.30;53.80
64062;DHT22;50308;47.438;-1.528;2022-08-03T08:53:28;26.30;53.90
64062;DHT22;50308;47.438;-1.528;2022-08-03T08:55:57;26.40;53.80
64062;DHT22;50308;47.438;-1.528;2022-08-03T08:58:27;26.40;53.70
64062;DHT22;50308;47.438;-1.528;2022-08-03T09:00:53;26.40;53.60
64062;DHT22;50308;47.438;-1.528;2022-08-03T09:03:19;26.40;53.60
64062;DHT22;50308;47.438;-1.528;2022-08-03T09:05:45;26.40;53.50
64062;DHT22;50308;47.438;-1.528;2022-08-03T09:08:11;26.40;53.50
64062;DHT22;50308;47.438;-1.528;2022-08-03T09:10:37;26.40;53.40
64062;DHT22;50308;47.438;-1.528;2022-08-03T09:13:02;26.50;53.50
64062;DHT22;50308;47.438;-1.528;2022-08-03T09:15:30;26.50;53.40
64062;DHT22;50308;47.438;-1.528;2022-08-03T09:17:58;26.50;53.50
64062;DHT22;50308;47.438;-1.528;2022-08-03T09:20:26;26.50;53.50
64062;DHT22;50308;47.438;-1.528;2022-08-03T09:23:04;26.50;53.50
64062;DHT22;50308;47.438;-1.528;2022-08-03T09:25:34;26.50;53.40
64062;DHT22;50308;47.438;-1.528;2022-08-03T09:28:11;26.50;53.70
64062;DHT22;50308;47.438;-1.528;2022-08-03T09:30:39;26.50;53.60
64062;DHT22;50308;47.438;-1.528;2022-08-03T09:33:08;26.50;53.60
64062;DHT22;50308;47.438;-1.528;2022-08-03T09:35:45;26.50;53.50
64062;DHT22;50308;47.438;-1.528;2022-08-03T09:38:16;26.50;53.40
64062;DHT22;50308;47.438;-1.528;2022-08-03T09:40:43;26.50;53.50
64062;DHT22;50308;47.438;-1.528;2022-08-03T09:43:10;26.50;53.20
64062;DHT22;50308;47.438;-1.528;2022-08-03T09:45:37;26.50;53.10
64062;DHT22;50308;47.438;-1.528;2022-08-03T09:48:22;26.60;53.30
64062;DHT22;50308;47.438;-1.528;2022-08-03T09:51:00;26.60;53.30
64062;DHT22;50308;47.438;-1.528;2022-08-03T09:53:26;26.60;53.40
64062;DHT22;50308;47.438;-1.528;2022-08-03T09:56:01;26.60;53.30
64062;DHT22;50308;47.438;-1.528;2022-08-03T09:58:29;26.60;53.00
64062;DHT22;50308;47.438;-1.528;2022-08-03T10:00:59;26.60;53.10
64062;DHT22;50308;47.438;-1.528;2022-08-03T10:03:27;26.70;53.30
64062;DHT22;50308;47.438;-1.528;2022-08-03T10:05:54;26.70;53.10
64062;DHT22;50308;47.438;-1.528;2022-08-03T10:08:20;26.70;53.00
64062;DHT22;50308;47.438;-1.528;2022-08-03T10:10:48;26.70;52.90
64062;DHT22;50308;47.438;-1.528;2022-08-03T10:13:16;26.70;53.10
64062;DHT22;50308;47.438;-1.528;2022-08-03T10:15:43;26.70;52.70
64062;DHT22;50308;47.438;-1.528;2022-08-03T10:18:09;26.70;52.80
64062;DHT22;50308;47.438;-1.528;2022-08-03T10:20:45;26.80;52.70
64062;DHT22;50308;47.438;-1.528;2022-08-03T10:23:11;26.80;53.00
64062;DHT22;50308;47.438;-1.528;2022-08-03T10:25:39;26.80;52.80
64062;DHT22;50308;47.438;-1.528;2022-08-03T10:28:06;26.80;52.60
64062;DHT22;50308;47.438;-1.528;2022-08-03T10:30:32;26.80;53.10
64062;DHT22;50308;47.438;-1.528;2022-08-03T10:33:04;26.80;53.10
64062;DHT22;50308;47.438;-1.528;2022-08-03T10:35:31;26.80;52.80
64062;DHT22;50308;47.438;-1.528;2022-08-03T10:38:00;26.80;52.80
64062;DHT22;50308;47.438;-1.528;2022-08-03T10:40:28;26.80;52.90
64062;DHT22;50308;47.438;-1.528;2022-08-03T10:42:58;26.80;52.70
64062;DHT22;50308;47.438;-1.528;2022-08-03T10:45:26;26.90;52.70
64062;DHT22;50308;47.438;-1.528;2022-08-03T10:47:54;26.90;52.40
64062;DHT22;50308;47.438;-1.528;2022-08-03T10:50:23;26.90;52.30
64062;DHT22;50308;47.438;-1.528;2022-08-03T10:53:04;26.90;52.70
64062;DHT22;50308;47.438;-1.528;2022-08-03T10:55:44;26.90;52.30
64062;DHT22;50308;47.438;-1.528;2022-08-03T10:58:53;27.00;52.10
64062;DHT22;50308;47.438;-1.528;2022-08-03T11:06:30;27.00;51.80
64062;DHT22;50308;47.438;-1.528;2022-08-03T11:11:35;27.00;52.20
64062;DHT22;50308;47.438;-1.528;2022-08-03T11:14:09;27.00;52.90
64062;DHT22;50308;47.438;-1.528;2022-08-03T11:16:41;27.00;52.50
64062;DHT22;50308;47.438;-1.528;2022-08-03T11:19:12;27.00;52.80
64062;DHT22;50308;47.438;-1.528;2022-08-03T11:30:08;27.10;52.20
64062;DHT22;50308;47.438;-1.528;2022-08-03T11:35:20;27.10;52.30
64062;DHT22;50308;47.438;-1.528;2022-08-03T11:42:58;27.10;51.70
64062;DHT22;50308;47.438;-1.528;2022-08-03T11:45:24;27.20;51.40
64062;DHT22;50308;47.438;-1.528;2022-08-03T11:47:53;27.20;51.10
64062;DHT22;50308;47.438;-1.528;2022-08-03T11:50:20;27.20;51.30
64062;DHT22;50308;47.438;-1.528;2022-08-03T11:52:47;27.20;51.60
64062;DHT22;50308;47.438;-1.528;2022-08-03T11:55:16;27.20;51.50
64062;DHT22;50308;47.438;-1.528;2022-08-03T11:57:43;27.20;51.80
64062;DHT22;50308;47.438;-1.528;2022-08-03T12:00:22;27.20;52.00
64062;DHT22;50308;47.438;-1.528;2022-08-03T12:02:59;27.20;51.30
64062;DHT22;50308;47.438;-1.528;2022-08-03T12:05:43;27.20;51.80
64062;DHT22;50308;47.438;-1.528;2022-08-03T12:08:10;27.20;51.80
64062;DHT22;50308;47.438;-1.528;2022-08-03T12:10:38;27.20;51.60
64062;DHT22;50308;47.438;-1.528;2022-08-03T12:13:05;27.20;51.20
64062;DHT22;50308;47.438;-1.528;2022-08-03T12:15:33;27.20;51.50
64062;DHT22;50308;47.438;-1.528;2022-08-03T12:18:01;27.20;51.20
64062;DHT22;50308;47.438;-1.528;2022-08-03T12:20:30;27.20;50.90
64062;DHT22;50308;47.438;-1.528;2022-08-03T12:23:02;27.30;50.70
64062;DHT22;50308;47.438;-1.528;2022-08-03T12:25:29;27.30;50.40
64062;DHT22;50308;47.438;-1.528;2022-08-03T12:30:32;27.40;50.40
64062;DHT22;50308;47.438;-1.528;2022-08-03T12:32:57;27.40;50.00
64062;DHT22;50308;47.438;-1.528;2022-08-03T12:35:23;27.40;49.30
64062;DHT22;50308;47.438;-1.528;2022-08-03T12:37:52;27.50;49.10
64062;DHT22;50308;47.438;-1.528;2022-08-03T12:40:24;27.50;49.20
64062;DHT22;50308;47.438;-1.528;2022-08-03T12:42:51;27.50;49.20
64062;DHT22;50308;47.438;-1.528;2022-08-03T12:45:21;27.40;48.80
64062;DHT22;50308;47.438;-1.528;2022-08-03T12:47:56;27.50;48.70
64062;DHT22;50308;47.438;-1.528;2022-08-03T12:50:27;27.50;48.80
64062;DHT22;50308;47.438;-1.528;2022-08-03T12:52:54;27.60;48.40
64062;DHT22;50308;47.438;-1.528;2022-08-03T12:55:21;27.60;48.20
64062;DHT22;50308;47.438;-1.528;2022-08-03T12:57:47;27.60;48.00
64062;DHT22;50308;47.438;-1.528;2022-08-03T13:00:18;27.70;47.90
64062;DHT22;50308;47.438;-1.528;2022-08-03T13:02:44;27.60;47.80
64062;DHT22;50308;47.438;-1.528;2022-08-03T13:05:12;27.70;47.90
64062;DHT22;50308;47.438;-1.528;2022-08-03T13:07:42;27.70;48.40
64062;DHT22;50308;47.438;-1.528;2022-08-03T13:10:09;27.60;48.50
64062;DHT22;50308;47.438;-1.528;2022-08-03T13:12:48;27.60;48.20
64062;DHT22;50308;47.438;-1.528;2022-08-03T13:15:14;27.70;47.90
64062;DHT22;50308;47.438;-1.528;2022-08-03T13:17:41;27.70;49.00
64062;DHT22;50308;47.438;-1.528;2022-08-03T13:20:07;27.70;48.50
64062;DHT22;50308;47.438;-1.528;2022-08-03T13:22:33;27.70;49.30
64062;DHT22;50308;47.438;-1.528;2022-08-03T13:24:59;27.60;48.60
64062;DHT22;50308;47.438;-1.528;2022-08-03T13:27:27;27.60;48.70
64062;DHT22;50308;47.438;-1.528;2022-08-03T13:29:53;27.70;48.20
64062;DHT22;50308;47.438;-1.528;2022-08-03T13:32:20;27.70;48.30
64062;DHT22;50308;47.438;-1.528;2022-08-03T13:34:46;27.70;48.00
64062;DHT22;50308;47.438;-1.528;2022-08-03T13:37:12;27.70;47.70
64062;DHT22;50308;47.438;-1.528;2022-08-03T13:39:38;27.70;47.60
64062;DHT22;50308;47.438;-1.528;2022-08-03T13:42:05;27.70;48.30
64062;DHT22;50308;47.438;-1.528;2022-08-03T13:44:31;27.70;48.20
64062;DHT22;50308;47.438;-1.528;2022-08-03T13:46:57;27.70;48.00
64062;DHT22;50308;47.438;-1.528;2022-08-03T13:49:25;27.70;47.10
64062;DHT22;50308;47.438;-1.528;2022-08-03T13:51:51;27.70;46.50
64062;DHT22;50308;47.438;-1.528;2022-08-03T13:54:17;27.80;45.90
64062;DHT22;50308;47.438;-1.528;2022-08-03T13:56:44;27.80;45.30
64062;DHT22;50308;47.438;-1.528;2022-08-03T13:59:17;27.80;45.00
64062;DHT22;50308;47.438;-1.528;2022-08-03T14:01:43;27.90;44.70
64062;DHT22;50308;47.438;-1.528;2022-08-03T14:04:08;27.90;45.90
64062;DHT22;50308;47.438;-1.528;2022-08-03T14:06:34;27.90;45.10
64062;DHT22;50308;47.438;-1.528;2022-08-03T14:09:00;27.90;45.10
64062;DHT22;50308;47.438;-1.528;2022-08-03T14:11:25;27.90;44.80
64062;DHT22;50308;47.438;-1.528;2022-08-03T14:13:51;27.90;44.90
64062;DHT22;50308;47.438;-1.528;2022-08-03T14:16:17;28.00;45.60
64062;DHT22;50308;47.438;-1.528;2022-08-03T14:18:42;28.00;45.20
64062;DHT22;50308;47.438;-1.528;2022-08-03T14:21:08;28.00;45.30
64062;DHT22;50308;47.438;-1.528;2022-08-03T14:23:35;28.00;45.10
64062;DHT22;50308;47.438;-1.528;2022-08-03T14:26:03;28.00;45.10
64062;DHT22;50308;47.438;-1.528;2022-08-03T14:28:29;28.00;46.00
64062;DHT22;50308;47.438;-1.528;2022-08-03T14:30:55;28.00;45.50
64062;DHT22;50308;47.438;-1.528;2022-08-03T14:33:21;28.10;45.40
64062;DHT22;50308;47.438;-1.528;2022-08-03T14:35:47;28.10;45.30
64062;DHT22;50308;47.438;-1.528;2022-08-03T14:38:13;28.10;45.20
64062;DHT22;50308;47.438;-1.528;2022-08-03T14:40:39;28.20;45.30
64062;DHT22;50308;47.438;-1.528;2022-08-03T14:43:05;28.20;45.30
64062;DHT22;50308;47.438;-1.528;2022-08-03T14:45:31;28.20;45.70
64062;DHT22;50308;47.438;-1.528;2022-08-03T14:47:58;28.20;45.40
64062;DHT22;50308;47.438;-1.528;2022-08-03T14:50:25;28.20;45.80
64062;DHT22;50308;47.438;-1.528;2022-08-03T14:52:53;28.20;46.50
64062;DHT22;50308;47.438;-1.528;2022-08-03T14:55:18;28.20;45.40
64062;DHT22;50308;47.438;-1.528;2022-08-03T14:57:44;28.20;45.50
64062;DHT22;50308;47.438;-1.528;2022-08-03T15:00:10;28.20;45.20
64062;DHT22;50308;47.438;-1.528;2022-08-03T15:02:36;28.20;45.50
64062;DHT22;50308;47.438;-1.528;2022-08-03T15:05:02;28.20;46.70
64062;DHT22;50308;47.438;-1.528;2022-08-03T15:07:28;28.10;46.20
64062;DHT22;50308;47.438;-1.528;2022-08-03T15:09:54;28.10;46.60
64062;DHT22;50308;47.438;-1.528;2022-08-03T15:12:19;28.10;46.40
64062;DHT22;50308;47.438;-1.528;2022-08-03T15:14:45;28.10;46.20
64062;DHT22;50308;47.438;-1.528;2022-08-03T15:17:11;28.20;47.70
64062;DHT22;50308;47.438;-1.528;2022-08-03T15:19:37;28.10;46.90
64062;DHT22;50308;47.438;-1.528;2022-08-03T15:22:03;28.10;46.10
64062;DHT22;50308;47.438;-1.528;2022-08-03T15:24:29;28.20;46.10
64062;DHT22;50308;47.438;-1.528;2022-08-03T15:26:55;28.20;45.50
64062;DHT22;50308;47.438;-1.528;2022-08-03T15:29:20;28.30;45.50
64062;DHT22;50308;47.438;-1.528;2022-08-03T15:31:46;28.30;44.90
64062;DHT22;50308;47.438;-1.528;2022-08-03T15:34:12;28.30;44.60
64062;DHT22;50308;47.438;-1.528;2022-08-03T15:36:37;28.40;44.30
64062;DHT22;50308;47.438;-1.528;2022-08-03T15:39:04;28.40;44.20
64062;DHT22;50308;47.438;-1.528;2022-08-03T15:41:31;28.40;44.90
64062;DHT22;50308;47.438;-1.528;2022-08-03T15:43:57;28.40;44.50
64062;DHT22;50308;47.438;-1.528;2022-08-03T15:46:23;28.40;45.40
64062;DHT22;50308;47.438;-1.528;2022-08-03T15:48:48;28.40;45.50
64062;DHT22;50308;47.438;-1.528;2022-08-03T15:51:14;28.50;44.60
64062;DHT22;50308;47.438;-1.528;2022-08-03T15:53:40;28.50;44.10
64062;DHT22;50308;47.438;-1.528;2022-08-03T15:56:06;28.60;43.60
64062;DHT22;50308;47.438;-1.528;2022-08-03T15:58:33;28.60;43.20
64062;DHT22;50308;47.438;-1.528;2022-08-03T16:01:00;28.70;42.90
64062;DHT22;50308;47.438;-1.528;2022-08-03T16:03:27;28.80;42.50